createdAt,value
2019-03-05T00:00:34.672Z,1.43
2019-03-05T00:03:04.358Z,2.93
2019-03-05T00:05:34.016Z,2.10
2019-03-05T00:08:03.625Z,0.70
2019-03-05T00:10:33.280Z,2.27
2019-03-05T00:13:02.894Z,1.30
2019-03-05T00:15:32.892Z,1.00
2019-03-05T00:18:02.578Z,1.10
2019-03-05T00:20:32.164Z,1.97
2019-03-05T00:23:01.850Z,1.03
2019-03-05T00:25:36.876Z,1.50
2019-03-05T00:28:28.120Z,1.13
2019-03-05T00:31:16.960Z,4.53
2019-03-05T00:34:14.697Z,1.00
2019-03-05T00:37:00.737Z,0.70
2019-03-05T00:39:49.648Z,1.90
2019-03-05T00:42:58.091Z,2.83
2019-03-05T00:45:58.905Z,1.77
2019-03-05T00:48:59.796Z,0.97
2019-03-05T00:51:36.671Z,1.47
2019-03-05T00:54:25.430Z,0.80
2019-03-05T00:57:08.268Z,1.03
2019-03-05T01:00:12.096Z,1.70
2019-03-05T01:03:22.192Z,1.43
2019-03-05T01:06:02.374Z,0.63
2019-03-05T01:08:33.871Z,0.80
2019-03-05T01:11:03.551Z,1.30
2019-03-05T01:13:33.448Z,0.60
2019-03-05T01:16:04.729Z,0.90
2019-03-05T01:18:34.608Z,1.30
2019-03-05T01:21:04.607Z,1.20
2019-03-05T01:23:34.357Z,1.33
2019-03-05T01:26:04.250Z,1.47
2019-03-05T01:28:34.008Z,1.70
2019-03-05T01:31:21.086Z,5.73
2019-03-05T01:34:04.540Z,2.13
2019-03-05T01:36:35.834Z,1.57
2019-03-05T01:39:19.742Z,1.47
2019-03-05T01:41:49.328Z,0.97
2019-03-05T01:44:18.939Z,0.70
2019-03-05T01:46:48.635Z,0.50
2019-03-05T01:49:18.288Z,1.63
2019-03-05T01:51:47.969Z,7.90
2019-03-05T01:54:17.722Z,4.00
2019-03-05T01:56:47.312Z,3.50
2019-03-05T01:59:16.921Z,2.10
2019-03-05T02:01:46.673Z,1.00
2019-03-05T02:04:16.399Z,1.90
2019-03-05T02:06:46.057Z,2.83
2019-03-05T02:09:16.105Z,2.37
2019-03-05T02:11:45.829Z,4.43
2019-03-05T02:14:15.443Z,1.87
2019-03-05T02:16:45.101Z,1.27
2019-03-05T02:19:38.109Z,1.17
2019-03-05T02:22:12.309Z,2.03
2019-03-05T02:25:01.324Z,4.90
2019-03-05T02:28:10.128Z,1.40
2019-03-05T02:31:02.705Z,2.50
2019-03-05T02:33:55.624Z,3.03
2019-03-05T02:36:50.212Z,1.13
2019-03-05T02:39:48.334Z,2.53
2019-03-05T02:42:31.195Z,2.03
2019-03-05T02:45:33.724Z,3.00
2019-03-05T02:48:13.614Z,1.13
2019-03-05T02:51:08.638Z,3.77
2019-03-05T02:53:59.104Z,1.60
2019-03-05T02:56:50.300Z,3.30
2019-03-05T02:59:18.205Z,3.47
2019-03-05T03:02:05.542Z,1.80
2019-03-05T03:04:40.774Z,1.97
2019-03-05T03:07:10.530Z,1.20
2019-03-05T03:09:50.225Z,1.67
2019-03-05T03:12:19.906Z,4.40
2019-03-05T03:14:49.595Z,3.53
2019-03-05T03:17:19.269Z,3.03
2019-03-05T03:19:48.945Z,1.73
2019-03-05T03:22:18.603Z,0.90
2019-03-05T03:24:48.238Z,1.27
2019-03-05T03:27:17.894Z,1.20
2019-03-05T03:29:47.524Z,3.63
2019-03-05T03:32:17.115Z,1.80
2019-03-05T03:34:46.741Z,0.77
2019-03-05T03:37:16.390Z,0.93
2019-03-05T03:39:45.974Z,1.10
2019-03-05T03:42:15.585Z,2.07
2019-03-05T03:44:45.206Z,3.03
2019-03-05T03:47:14.860Z,1.13
2019-03-05T03:49:44.447Z,1.00
2019-03-05T03:52:14.134Z,7.47
2019-03-05T03:54:43.749Z,1.63
2019-03-05T03:57:13.466Z,2.93
2019-03-05T03:59:43.079Z,3.10
2019-03-05T04:02:12.668Z,1.40
2019-03-05T04:04:42.415Z,5.10
2019-03-05T04:07:12.163Z,2.53
2019-03-05T04:09:41.911Z,2.70
2019-03-05T04:12:11.586Z,2.43
2019-03-05T04:14:41.177Z,1.33
2019-03-05T04:17:10.791Z,1.90
2019-03-05T04:19:40.518Z,1.13
2019-03-05T04:22:10.116Z,2.37
2019-03-05T04:24:39.920Z,3.03
2019-03-05T04:27:09.539Z,1.67
2019-03-05T04:29:39.123Z,4.00
2019-03-05T04:32:08.742Z,5.47
2019-03-05T04:34:38.335Z,2.93
2019-03-05T04:37:07.935Z,3.63
2019-03-05T04:39:37.544Z,5.40
2019-03-05T04:42:07.274Z,1.43
2019-03-05T04:44:38.519Z,1.20
2019-03-05T04:47:08.165Z,1.83
2019-03-05T04:49:41.998Z,3.13
2019-03-05T04:52:13.244Z,3.33
2019-03-05T04:54:42.829Z,6.07
2019-03-05T04:57:12.683Z,2.97
2019-03-05T04:59:42.290Z,2.30
2019-03-05T05:02:12.046Z,7.87
2019-03-05T05:04:41.631Z,4.27
2019-03-05T05:07:11.245Z,2.93
2019-03-05T05:09:40.831Z,5.97
2019-03-05T05:12:10.457Z,3.90
2019-03-05T05:14:40.041Z,2.73
2019-03-05T05:17:09.630Z,5.40
2019-03-05T05:19:39.249Z,3.47
2019-03-05T05:22:08.833Z,4.40
2019-03-05T05:24:38.444Z,3.10
2019-03-05T05:27:08.036Z,2.10
2019-03-05T05:29:37.662Z,4.07
2019-03-05T05:32:07.249Z,2.70
2019-03-05T05:34:36.837Z,4.37
2019-03-05T05:37:06.451Z,2.27
2019-03-05T05:40:26.193Z,3.97
2019-03-05T05:42:55.806Z,3.50
2019-03-05T05:45:46.940Z,4.03
2019-03-05T05:48:16.669Z,5.80
2019-03-05T05:50:46.326Z,3.90
2019-03-05T05:53:16.078Z,4.60
2019-03-05T05:55:46.796Z,6.60
2019-03-05T05:58:16.480Z,2.37
2019-03-05T06:00:47.855Z,3.20
2019-03-05T06:03:17.470Z,5.60
2019-03-05T06:05:47.050Z,4.30
2019-03-05T06:08:16.734Z,7.47
2019-03-05T06:10:46.698Z,5.10
2019-03-05T06:13:16.364Z,5.37
2019-03-05T06:15:45.978Z,5.67
2019-03-05T06:18:15.593Z,8.73
2019-03-05T06:20:45.215Z,8.80
2019-03-05T06:23:14.832Z,8.87
2019-03-05T06:25:44.479Z,7.90
2019-03-05T06:28:14.081Z,6.43
2019-03-05T06:30:44.405Z,9.73
2019-03-05T06:33:14.023Z,13.67
2019-03-05T06:35:43.845Z,6.17
2019-03-05T06:38:13.529Z,14.87
2019-03-05T06:40:43.111Z,5.60
2019-03-05T06:43:13.320Z,8.03
2019-03-05T06:45:43.004Z,4.60
2019-03-05T06:48:12.692Z,7.67
2019-03-05T06:50:42.305Z,6.83
2019-03-05T06:53:11.969Z,6.13
2019-03-05T06:55:41.610Z,5.27
2019-03-05T06:58:11.985Z,5.93
2019-03-05T07:00:41.977Z,3.77
2019-03-05T07:03:11.755Z,9.37
2019-03-05T07:06:35.888Z,9.80
2019-03-05T07:09:15.495Z,11.07
2019-03-05T07:11:55.517Z,9.90
2019-03-05T07:14:41.399Z,12.40
2019-03-05T07:17:21.340Z,11.70
2019-03-05T07:20:24.754Z,12.57
2019-03-05T07:23:13.646Z,10.93
2019-03-05T07:25:43.402Z,5.87
2019-03-05T07:28:12.990Z,6.13
2019-03-05T07:30:42.700Z,8.10
2019-03-05T07:33:12.320Z,19.63
2019-03-05T07:35:42.262Z,13.67
2019-03-05T07:38:12.298Z,10.43
2019-03-05T07:40:41.900Z,7.67
2019-03-05T07:43:11.487Z,11.13
2019-03-05T07:45:41.084Z,9.97
2019-03-05T07:48:10.718Z,17.63
2019-03-05T07:50:40.876Z,14.13
2019-03-05T07:53:10.503Z,14.37
2019-03-05T07:55:40.119Z,11.20
2019-03-05T07:58:11.701Z,13.73
2019-03-05T08:00:41.893Z,12.57
2019-03-05T08:03:11.557Z,9.67
2019-03-05T08:05:41.341Z,16.03
2019-03-05T08:09:05.563Z,9.67
2019-03-05T08:11:35.223Z,15.47
2019-03-05T08:14:17.914Z,10.73
2019-03-05T08:16:47.506Z,7.90
2019-03-05T08:19:17.117Z,8.87
2019-03-05T08:21:46.708Z,7.70
2019-03-05T08:24:16.325Z,8.03
2019-03-05T08:26:45.911Z,6.27
2019-03-05T08:29:15.718Z,17.13
2019-03-05T08:31:45.306Z,7.30
2019-03-05T08:34:14.930Z,12.43
2019-03-05T08:36:44.519Z,10.50
2019-03-05T08:39:14.269Z,6.27
2019-03-05T08:41:43.857Z,2.23
2019-03-05T08:44:13.444Z,3.10
2019-03-05T08:46:43.057Z,25.50
2019-03-05T08:49:12.713Z,8.33
2019-03-05T08:51:42.324Z,8.27
2019-03-05T08:54:11.918Z,6.17
2019-03-05T08:56:42.032Z,8.43
2019-03-05T08:59:11.657Z,5.30
2019-03-05T09:01:41.273Z,3.87
2019-03-05T09:04:10.995Z,5.53
2019-03-05T09:06:40.605Z,10.97
2019-03-05T09:09:12.241Z,8.60
2019-03-05T09:11:41.853Z,1.77
2019-03-05T09:14:11.464Z,3.27
2019-03-05T09:16:41.050Z,2.57
2019-03-05T09:19:10.662Z,2.43
2019-03-05T09:21:40.318Z,3.20
2019-03-05T09:24:09.944Z,4.20
2019-03-05T09:26:50.482Z,5.07
2019-03-05T09:29:11.040Z,3.90
2019-03-05T09:31:40.642Z,13.60
2019-03-05T09:34:10.391Z,13.87
2019-03-05T09:36:50.533Z,2.37
2019-03-05T09:39:12.763Z,2.53
2019-03-05T09:41:42.494Z,7.03
2019-03-05T09:44:12.179Z,6.73
2019-03-05T09:46:41.781Z,6.73
2019-03-05T09:49:11.399Z,3.53
2019-03-05T09:51:40.990Z,1.80
2019-03-05T09:54:10.751Z,2.73
2019-03-05T09:56:40.410Z,3.80
2019-03-05T09:59:10.115Z,2.00
2019-03-05T10:01:39.841Z,2.73
2019-03-05T10:04:09.430Z,3.70
2019-03-05T10:06:39.043Z,2.70
2019-03-05T10:09:09.052Z,8.70
2019-03-05T10:11:38.740Z,2.73
2019-03-05T10:14:08.411Z,17.60
2019-03-05T10:16:38.034Z,7.90
2019-03-05T10:19:07.701Z,2.30
2019-03-05T10:21:45.894Z,1.30
2019-03-05T10:24:10.751Z,6.53
2019-03-05T10:26:40.605Z,2.30
2019-03-05T10:29:10.261Z,2.47
2019-03-05T10:31:40.328Z,3.37
2019-03-05T10:34:10.048Z,2.10
2019-03-05T10:36:39.742Z,4.30
2019-03-05T10:39:30.655Z,1.80
2019-03-05T10:41:56.471Z,2.03
2019-03-05T10:44:26.251Z,1.60
2019-03-05T10:46:56.338Z,4.67
2019-03-05T10:49:26.170Z,1.73
2019-03-05T10:51:55.794Z,4.27
2019-03-05T10:54:25.418Z,3.60
2019-03-05T10:56:55.149Z,3.50
2019-03-05T10:59:24.856Z,2.20
2019-03-05T11:01:54.619Z,1.60
2019-03-05T11:04:24.715Z,1.37
2019-03-05T11:06:54.414Z,0.77
2019-03-05T11:09:24.287Z,0.93
2019-03-05T11:11:53.920Z,3.93
2019-03-05T11:14:23.588Z,1.53
2019-03-05T11:16:53.435Z,0.80
2019-03-05T11:19:23.027Z,2.77
2019-03-05T11:21:52.706Z,1.53
2019-03-05T11:24:22.320Z,0.77
2019-03-05T11:26:52.018Z,3.37
2019-03-05T11:29:21.820Z,3.33
2019-03-05T11:31:51.487Z,1.30
2019-03-05T11:34:21.107Z,2.33
2019-03-05T11:36:50.704Z,2.67
2019-03-05T11:39:20.383Z,0.70
2019-03-05T11:41:50.014Z,0.83
2019-03-05T11:44:19.601Z,2.20
2019-03-05T11:46:49.293Z,0.70
2019-03-05T11:49:19.026Z,2.50
2019-03-05T11:51:48.722Z,1.20
2019-03-05T11:54:18.371Z,0.70
2019-03-05T11:56:48.015Z,5.90
2019-03-05T11:59:17.635Z,3.47
2019-03-05T12:01:47.252Z,3.90
2019-03-05T12:04:16.866Z,1.77
2019-03-05T12:06:46.531Z,1.00
2019-03-05T12:09:16.214Z,2.83
2019-03-05T12:11:45.808Z,2.60
2019-03-05T12:14:15.427Z,0.40
2019-03-05T12:16:45.128Z,1.97
2019-03-05T12:19:14.720Z,1.37
2019-03-05T12:21:44.316Z,4.53
2019-03-05T12:24:13.947Z,4.47
2019-03-05T12:26:43.684Z,3.20
2019-03-05T12:29:13.281Z,2.17
2019-03-05T12:31:42.910Z,1.50
2019-03-05T12:34:12.577Z,2.20
2019-03-05T12:36:42.191Z,4.27
2019-03-05T12:39:13.468Z,2.73
2019-03-05T12:41:43.091Z,7.37
2019-03-05T12:44:12.716Z,13.23
2019-03-05T12:46:42.320Z,8.83
2019-03-05T12:49:12.017Z,2.43
2019-03-05T12:51:41.847Z,3.43
2019-03-05T12:54:11.531Z,3.90
2019-03-05T12:56:41.223Z,6.10
2019-03-05T12:59:10.818Z,0.77
2019-03-05T13:01:40.523Z,3.37
2019-03-05T13:04:10.258Z,2.10
2019-03-05T13:06:39.925Z,5.37
2019-03-05T13:09:17.793Z,3.10
2019-03-05T13:11:46.589Z,0.60
2019-03-05T13:14:16.880Z,3.77
2019-03-05T13:16:46.548Z,1.83
2019-03-05T13:19:16.303Z,0.60
2019-03-05T13:21:48.544Z,2.60
2019-03-05T13:24:17.267Z,1.33
2019-03-05T13:26:46.872Z,3.67
2019-03-05T13:29:19.159Z,0.57
2019-03-05T13:31:47.818Z,0.83
2019-03-05T13:34:17.705Z,1.63
2019-03-05T13:36:50.606Z,14.57
2019-03-05T13:39:22.221Z,5.10
2019-03-05T13:41:55.282Z,2.27
2019-03-05T13:44:34.011Z,12.47
2019-03-05T13:47:05.708Z,1.30
2019-03-05T13:49:45.734Z,2.97
2019-03-05T13:52:50.457Z,5.83
2019-03-05T13:55:53.137Z,2.00
2019-03-05T13:59:12.065Z,6.83
2019-03-05T14:01:42.398Z,3.03
2019-03-05T14:04:53.832Z,2.03
2019-03-05T14:07:59.157Z,3.17
2019-03-05T14:10:28.751Z,4.10
2019-03-05T14:12:58.527Z,2.47
2019-03-05T14:15:28.493Z,2.30
2019-03-05T14:17:58.148Z,3.20
2019-03-05T14:20:32.064Z,4.10
2019-03-05T14:22:59.092Z,3.10
2019-03-05T14:25:28.783Z,1.07
2019-03-05T14:27:58.441Z,4.30
2019-03-05T14:30:28.269Z,1.13
2019-03-05T14:32:57.925Z,4.77
2019-03-05T14:35:27.987Z,1.63
2019-03-05T14:37:57.716Z,3.53
2019-03-05T14:40:30.260Z,3.83
2019-03-05T14:43:00.180Z,1.43
2019-03-05T14:45:36.570Z,2.30
2019-03-05T14:48:06.649Z,1.40
2019-03-05T14:50:36.789Z,1.67
2019-03-05T14:53:06.634Z,1.23
2019-03-05T14:55:36.361Z,1.20
2019-03-05T14:58:06.154Z,5.03
2019-03-05T15:00:35.877Z,2.97
2019-03-05T15:03:05.764Z,1.23
2019-03-05T15:05:35.568Z,5.70
2019-03-05T15:08:05.231Z,1.67
2019-03-05T15:10:35.145Z,1.70
2019-03-05T15:13:15.294Z,1.57
2019-03-05T15:15:36.784Z,2.73
2019-03-05T15:18:06.619Z,2.17
2019-03-05T15:20:36.228Z,3.13
2019-03-05T15:23:05.915Z,2.97
2019-03-05T15:25:35.608Z,1.50
2019-03-05T15:28:05.448Z,1.93
2019-03-05T15:30:35.287Z,1.37
2019-03-05T15:33:04.914Z,1.53
2019-03-05T15:35:34.546Z,8.83
2019-03-05T15:38:04.168Z,1.13
2019-03-05T15:40:33.729Z,5.63
2019-03-05T15:43:03.374Z,4.30
2019-03-05T15:48:16.841Z,2.27
2019-03-05T15:50:46.425Z,12.13
2019-03-05T15:53:16.018Z,2.47
2019-03-05T15:55:45.705Z,2.70
2019-03-05T15:58:15.300Z,7.83
2019-03-05T16:00:45.364Z,5.60
2019-03-05T16:03:14.955Z,3.67
2019-03-05T16:05:44.719Z,2.87
2019-03-05T16:08:14.313Z,2.07
2019-03-05T16:10:43.923Z,3.50
2019-03-05T16:13:15.367Z,4.07
2019-03-05T16:15:45.456Z,3.83
2019-03-05T16:18:16.187Z,3.73
2019-03-05T16:20:45.881Z,2.17
2019-03-05T16:23:15.502Z,6.33
2019-03-05T16:25:49.852Z,2.27
2019-03-05T16:28:16.984Z,3.07
2019-03-05T16:31:00.229Z,4.57
2019-03-05T16:33:32.508Z,4.17
2019-03-05T16:36:17.383Z,2.97
2019-03-05T16:39:03.947Z,7.53
2019-03-05T16:41:53.408Z,2.40
2019-03-05T16:44:31.318Z,4.47
2019-03-05T16:47:00.670Z,2.03
2019-03-05T16:49:32.206Z,4.37
2019-03-05T16:52:19.609Z,6.40
2019-03-05T16:54:50.944Z,12.30
2019-03-05T16:57:22.450Z,4.60
2019-03-05T16:59:53.707Z,2.57
2019-03-05T17:02:30.972Z,9.87
2019-03-05T17:05:00.360Z,4.87
2019-03-05T17:07:37.439Z,3.97
2019-03-05T17:10:15.493Z,20.07
2019-03-05T17:12:45.092Z,11.57
2019-03-05T17:15:15.135Z,9.83
2019-03-05T17:17:44.734Z,17.93
2019-03-05T17:20:14.776Z,23.20
2019-03-05T17:22:44.372Z,22.07
2019-03-05T17:25:18.330Z,25.53
2019-03-05T17:27:47.953Z,18.63
2019-03-05T17:30:18.647Z,21.53
2019-03-05T17:32:49.101Z,17.80
2019-03-05T17:35:18.987Z,19.57
2019-03-05T17:37:48.857Z,33.47
2019-03-05T17:40:18.626Z,33.90
2019-03-05T17:42:50.126Z,35.90
2019-03-05T17:45:24.659Z,28.43
2019-03-05T17:47:54.658Z,19.40
2019-03-05T17:50:24.384Z,24.90
2019-03-05T17:52:54.004Z,20.23
2019-03-05T17:55:28.719Z,18.77
2019-03-05T17:57:58.485Z,24.57
2019-03-05T18:00:33.002Z,20.93
2019-03-05T18:03:02.596Z,24.90
2019-03-05T18:05:32.323Z,21.10
2019-03-05T18:08:02.129Z,19.47
2019-03-05T18:10:31.933Z,18.63
2019-03-05T18:13:01.615Z,17.27
2019-03-05T18:15:31.204Z,18.67
2019-03-05T18:18:00.886Z,20.23
2019-03-05T18:20:30.644Z,21.10
2019-03-05T18:23:00.258Z,20.33
2019-03-05T18:25:29.958Z,16.30
2019-03-05T18:27:59.546Z,13.87
2019-03-05T18:30:31.142Z,14.83
2019-03-05T18:33:00.939Z,15.07
2019-03-05T18:35:30.562Z,18.13
2019-03-05T18:38:00.159Z,14.07
2019-03-05T18:40:30.151Z,13.03
2019-03-05T18:42:59.910Z,13.83
2019-03-05T18:45:41.751Z,11.93
2019-03-05T18:48:11.534Z,11.83
2019-03-05T18:50:41.224Z,15.03
2019-03-05T18:53:10.980Z,16.23
2019-03-05T18:55:42.178Z,14.63
2019-03-05T18:58:11.788Z,12.13
2019-03-05T19:00:41.613Z,13.03
2019-03-05T19:03:17.752Z,17.77
2019-03-05T19:05:47.744Z,12.20
2019-03-05T19:08:17.350Z,10.57
2019-03-05T19:10:47.029Z,11.53
2019-03-05T19:13:16.783Z,9.27
2019-03-05T19:15:46.744Z,14.53
2019-03-05T19:18:16.334Z,11.30
2019-03-05T19:20:46.017Z,17.80
2019-03-05T19:23:15.608Z,14.00
2019-03-05T19:25:47.227Z,14.30
2019-03-05T19:28:16.994Z,11.10
2019-03-05T19:30:51.891Z,9.77
2019-03-05T19:33:21.643Z,9.27
2019-03-05T19:35:51.256Z,13.03
2019-03-05T19:38:21.479Z,15.70
2019-03-05T19:40:51.133Z,8.80
2019-03-05T19:43:20.745Z,8.43
2019-03-05T19:45:50.403Z,10.77
2019-03-05T19:48:20.087Z,15.53
2019-03-05T19:50:49.669Z,9.23
2019-03-05T19:53:19.360Z,13.77
2019-03-05T19:55:49.046Z,11.53
2019-03-05T19:58:18.655Z,9.60
2019-03-05T20:01:12.726Z,12.77
2019-03-05T20:03:42.409Z,11.73
2019-03-05T20:06:12.503Z,9.67
2019-03-05T20:08:42.111Z,12.43
2019-03-05T20:11:11.793Z,10.47
2019-03-05T20:13:41.452Z,8.93
2019-03-05T20:16:11.338Z,12.13
2019-03-05T20:18:40.930Z,10.97
2019-03-05T20:21:10.822Z,10.87
2019-03-05T20:23:40.403Z,9.00
2019-03-05T20:26:10.028Z,10.03
2019-03-05T20:28:39.615Z,9.17
2019-03-05T20:31:09.441Z,9.40
2019-03-05T20:33:39.033Z,11.90
2019-03-05T20:36:08.715Z,15.40
2019-03-05T20:38:38.300Z,9.93
2019-03-05T20:41:07.919Z,13.43
2019-03-05T20:43:37.502Z,11.43
2019-03-05T20:46:17.677Z,14.67
2019-03-05T20:48:47.403Z,12.67
2019-03-05T20:51:17.016Z,9.00
2019-03-05T20:53:46.602Z,10.67
2019-03-05T20:56:16.284Z,9.77
2019-03-05T20:58:45.879Z,10.23
2019-03-05T21:01:15.561Z,9.87
2019-03-05T21:03:45.248Z,13.03
2019-03-05T21:06:15.161Z,10.97
2019-03-05T21:08:44.775Z,11.20
2019-03-05T21:11:14.428Z,12.67
2019-03-05T21:13:44.111Z,13.00
2019-03-05T21:16:13.836Z,9.87
2019-03-05T21:18:43.455Z,9.83
2019-03-05T21:21:13.043Z,9.73
2019-03-05T21:23:42.670Z,10.30
2019-03-05T21:26:12.342Z,13.63
2019-03-05T21:28:41.944Z,8.83
2019-03-05T21:31:11.629Z,14.70
2019-03-05T21:33:41.214Z,8.97
2019-03-05T21:36:10.835Z,10.10
2019-03-05T21:38:40.441Z,9.67
2019-03-05T21:41:10.131Z,17.03
2019-03-05T21:43:39.722Z,15.83
2019-03-05T21:46:16.445Z,8.70
2019-03-05T21:48:46.101Z,10.07
2019-03-05T21:51:15.699Z,11.13
2019-03-05T21:53:45.324Z,11.87
2019-03-05T21:56:14.938Z,10.77
2019-03-05T21:58:44.526Z,12.80
2019-03-05T22:01:14.216Z,19.40
2019-03-05T22:03:43.825Z,21.90
2019-03-05T22:06:13.421Z,21.83
2019-03-05T22:08:43.043Z,26.37
2019-03-05T22:11:12.635Z,30.73
2019-03-05T22:13:42.315Z,28.37
2019-03-05T22:16:12.107Z,22.30
2019-03-05T22:18:41.761Z,21.37
2019-03-05T22:21:11.382Z,26.50
2019-03-05T22:23:40.979Z,26.30
2019-03-05T22:26:10.588Z,28.27
2019-03-05T22:28:40.253Z,13.60
2019-03-05T22:31:09.865Z,8.73
2019-03-05T22:33:39.455Z,13.97
2019-03-05T22:36:09.137Z,12.17
2019-03-05T22:38:38.722Z,10.90
2019-03-05T22:41:08.326Z,13.03
2019-03-05T22:43:37.985Z,11.90
2019-03-05T22:46:07.667Z,13.47
2019-03-05T22:48:37.292Z,12.67
2019-03-05T22:51:06.887Z,10.70
2019-03-05T22:53:36.480Z,12.40
2019-03-05T22:56:06.232Z,9.07
2019-03-05T22:58:35.818Z,10.07
2019-03-05T23:01:07.223Z,7.83
2019-03-05T23:03:37.518Z,9.57
2019-03-05T23:06:11.675Z,11.97
2019-03-05T23:08:41.330Z,7.30
2019-03-05T23:11:11.180Z,9.93
2019-03-05T23:13:41.072Z,9.47
2019-03-05T23:16:10.892Z,8.27
2019-03-05T23:18:40.586Z,8.80
2019-03-05T23:21:10.936Z,6.63
2019-03-05T23:23:40.625Z,13.83
2019-03-05T23:26:10.724Z,9.10
2019-03-05T23:28:40.478Z,8.20
2019-03-05T23:31:12.772Z,9.30
2019-03-05T23:33:42.598Z,8.63
2019-03-05T23:36:12.417Z,7.77
2019-03-05T23:38:42.231Z,9.10
2019-03-05T23:41:11.844Z,8.93
2019-03-05T23:43:41.505Z,9.60
2019-03-05T23:46:11.176Z,9.97
2019-03-05T23:48:40.901Z,8.70
2019-03-05T23:51:10.584Z,7.87
2019-03-05T23:53:40.196Z,7.03
2019-03-05T23:56:09.808Z,8.43
2019-03-05T23:58:39.422Z,9.83
